createdAt,value
2023-03-24T00:02:35.324Z,5.72
2023-03-24T00:05:04.068Z,2.97
2023-03-24T00:07:40.338Z,3.83
2023-03-24T00:10:25.178Z,2.90
2023-03-24T00:12:55.771Z,4.65
2023-03-24T00:15:31.109Z,3.53
2023-03-24T00:18:06.143Z,4.23
2023-03-24T00:20:36.752Z,3.72
2023-03-24T00:23:11.119Z,4.78
2023-03-24T00:25:49.785Z,3.05
2023-03-24T00:28:24.159Z,5.67
2023-03-24T00:30:52.927Z,4.33
2023-03-24T00:33:27.140Z,3.70
2023-03-24T00:35:54.697Z,3.53
2023-03-24T00:38:25.702Z,4.00
2023-03-24T00:41:01.145Z,3.23
2023-03-24T00:43:36.145Z,5.77
2023-03-24T00:46:14.192Z,6.70
2023-03-24T00:48:49.230Z,4.50
2023-03-24T00:51:23.160Z,5.80
2023-03-24T00:53:57.352Z,4.07
2023-03-24T00:56:34.214Z,3.87
2023-03-24T00:59:02.733Z,5.20
2023-03-24T01:01:41.541Z,3.17
2023-03-24T01:04:10.669Z,3.47
2023-03-24T01:06:46.123Z,3.73
2023-03-24T01:09:21.679Z,4.83
2023-03-24T01:11:56.146Z,6.10
2023-03-24T01:14:31.190Z,4.30
2023-03-24T01:17:13.152Z,4.30
2023-03-24T01:19:55.141Z,4.77
2023-03-24T01:22:33.236Z,3.80
2023-03-24T01:25:01.122Z,3.20
2023-03-24T01:27:35.135Z,3.23
2023-03-24T01:30:04.306Z,4.23
2023-03-24T01:32:38.513Z,5.27
2023-03-24T01:35:07.766Z,5.83
2023-03-24T01:37:42.151Z,5.17
2023-03-24T01:40:23.169Z,2.80
2023-03-24T01:42:51.437Z,2.88
2023-03-24T01:45:45.184Z,3.50
2023-03-24T01:48:17.881Z,3.37
2023-03-24T01:51:16.139Z,4.07
2023-03-24T01:54:00.161Z,4.82
2023-03-24T01:56:32.583Z,3.43
2023-03-24T01:59:10.160Z,3.07
2023-03-24T02:04:30.373Z,2.73
2023-03-24T02:07:38.632Z,5.38
2023-03-24T02:10:18.218Z,2.67
2023-03-24T02:12:49.285Z,2.63
2023-03-24T02:15:26.236Z,3.08
2023-03-24T02:18:25.126Z,3.73
2023-03-24T02:21:11.131Z,4.55
2023-03-24T02:24:17.207Z,3.03
2023-03-24T02:27:16.183Z,3.17
2023-03-24T02:30:21.139Z,2.37
2023-03-24T02:33:09.015Z,3.60
2023-03-24T02:36:17.209Z,3.80
2023-03-24T02:39:27.216Z,2.10
2023-03-24T02:42:18.198Z,2.70
2023-03-24T02:45:04.232Z,2.33
2023-03-24T02:47:44.227Z,3.77
2023-03-24T02:50:35.218Z,3.40
2023-03-24T02:53:24.189Z,2.50
2023-03-24T02:56:09.162Z,2.47
2023-03-24T02:58:53.205Z,2.53
2023-03-24T03:01:39.170Z,2.30
2023-03-24T03:04:19.204Z,2.77
2023-03-24T03:07:16.509Z,3.67
2023-03-24T03:10:02.230Z,2.65
2023-03-24T03:12:42.501Z,2.30
2023-03-24T03:15:25.196Z,2.40
2023-03-24T03:17:59.257Z,3.25
2023-03-24T03:20:41.167Z,3.08
2023-03-24T03:23:13.085Z,3.58
2023-03-24T03:25:57.184Z,3.07
2023-03-24T03:28:31.157Z,3.60
2023-03-24T03:31:12.230Z,2.47
2023-03-24T03:33:57.199Z,3.50
2023-03-24T03:36:42.197Z,2.60
2023-03-24T03:39:19.423Z,2.97
2023-03-24T03:41:53.337Z,3.30
2023-03-24T03:44:21.006Z,3.38
2023-03-24T03:46:55.241Z,2.28
2023-03-24T03:49:23.075Z,2.20
2023-03-24T03:52:01.185Z,2.33
2023-03-24T03:54:38.245Z,3.35
2023-03-24T03:57:14.408Z,3.15
2023-03-24T03:59:42.120Z,3.08
2023-03-24T04:02:35.445Z,5.43
2023-03-24T04:05:33.250Z,3.33
2023-03-24T04:08:12.813Z,4.07
2023-03-24T04:11:09.241Z,3.40
2023-03-24T04:14:01.195Z,3.28
2023-03-24T04:17:00.274Z,3.17
2023-03-24T04:19:40.205Z,3.30
2023-03-24T04:22:26.365Z,2.10
2023-03-24T04:25:11.282Z,3.35
2023-03-24T04:28:21.612Z,2.35
2023-03-24T04:31:15.348Z,4.95
2023-03-24T04:34:03.790Z,2.47
2023-03-24T04:36:50.255Z,2.95
2023-03-24T04:39:36.359Z,3.00
2023-03-24T04:42:20.205Z,4.72
2023-03-24T04:44:51.786Z,3.65
2023-03-24T04:47:33.229Z,3.10
2023-03-24T04:50:13.324Z,3.35
2023-03-24T04:52:42.510Z,2.47
2023-03-24T04:55:55.201Z,2.80
2023-03-24T04:58:23.929Z,3.05
2023-03-24T05:00:59.195Z,3.57
2023-03-24T05:03:33.302Z,4.50
2023-03-24T05:06:07.206Z,5.00
2023-03-24T05:08:41.596Z,4.70
2023-03-24T05:11:15.212Z,7.50
2023-03-24T05:13:44.648Z,6.23
2023-03-24T05:16:20.278Z,5.10
2023-03-24T05:18:47.897Z,7.37
2023-03-24T05:21:22.259Z,6.20
2023-03-24T05:23:49.832Z,4.85
2023-03-24T05:26:24.472Z,6.07
2023-03-24T05:29:00.243Z,5.10
2023-03-24T05:31:34.172Z,5.47
2023-03-24T05:34:08.215Z,6.30
2023-03-24T05:36:42.164Z,6.50
2023-03-24T05:39:16.175Z,7.67
2023-03-24T05:41:50.193Z,6.28
2023-03-24T05:44:17.712Z,5.13
2023-03-24T05:46:52.282Z,5.67
2023-03-24T05:49:20.171Z,5.03
2023-03-24T05:51:55.305Z,5.57
2023-03-24T05:54:24.112Z,6.53
2023-03-24T05:56:52.490Z,4.18
2023-03-24T05:59:27.389Z,4.55
2023-03-24T06:01:59.002Z,4.70
2023-03-24T06:04:37.359Z,7.00
2023-03-24T06:07:26.293Z,5.30
2023-03-24T06:10:05.365Z,6.50
2023-03-24T06:12:40.307Z,4.88
2023-03-24T06:15:16.308Z,5.78
2023-03-24T06:17:44.981Z,6.90
2023-03-24T06:20:26.400Z,6.85
2023-03-24T06:23:06.339Z,9.07
2023-03-24T06:25:43.472Z,5.90
2023-03-24T06:28:21.565Z,9.35
2023-03-24T06:30:57.522Z,6.68
2023-03-24T06:33:32.518Z,8.20
2023-03-24T06:36:08.321Z,8.52
2023-03-24T06:38:42.383Z,8.30
2023-03-24T06:41:10.669Z,6.57
2023-03-24T06:43:45.238Z,9.02
2023-03-24T06:46:14.087Z,7.50
2023-03-24T06:48:49.312Z,8.57
2023-03-24T06:51:18.144Z,14.70
2023-03-24T06:53:52.254Z,8.80
2023-03-24T06:56:21.292Z,8.23
2023-03-24T06:58:49.608Z,7.82
2023-03-24T07:01:24.280Z,8.00
2023-03-24T07:04:00.279Z,10.95
2023-03-24T07:06:43.251Z,7.18
2023-03-24T07:09:26.220Z,6.30
2023-03-24T07:12:00.268Z,6.47
2023-03-24T07:14:27.945Z,6.55
2023-03-24T07:17:02.240Z,4.97
2023-03-24T07:19:37.240Z,6.07
2023-03-24T07:22:05.061Z,4.10
2023-03-24T07:24:39.272Z,5.10
2023-03-24T07:27:07.012Z,4.50
2023-03-24T07:29:43.278Z,5.55
2023-03-24T07:32:17.672Z,6.40
2023-03-24T07:34:53.256Z,3.03
2023-03-24T07:37:43.301Z,4.35
2023-03-24T07:40:18.067Z,5.18
2023-03-24T07:42:52.245Z,4.00
2023-03-24T07:45:26.317Z,4.88
2023-03-24T07:48:00.408Z,4.20
2023-03-24T07:50:28.999Z,3.25
2023-03-24T07:52:59.364Z,3.10
2023-03-24T07:55:35.268Z,3.20
2023-03-24T07:58:09.264Z,2.85
2023-03-24T08:00:45.212Z,2.85
2023-03-24T08:03:21.277Z,3.13
2023-03-24T08:05:55.395Z,2.45
2023-03-24T08:08:30.402Z,2.63
2023-03-24T08:11:05.224Z,2.35
2023-03-24T08:13:39.374Z,2.20
2023-03-24T08:16:07.330Z,2.00
2023-03-24T08:18:41.314Z,2.10
2023-03-24T08:21:16.213Z,1.67
2023-03-24T08:23:50.299Z,1.52
2023-03-24T08:26:24.221Z,1.60
2023-03-24T08:28:51.784Z,2.28
2023-03-24T08:31:26.429Z,2.75
2023-03-24T08:33:55.239Z,1.48
2023-03-24T08:36:33.285Z,2.05
2023-03-24T08:39:08.308Z,1.48
2023-03-24T08:41:43.253Z,1.77
2023-03-24T08:44:12.563Z,1.55
2023-03-24T08:46:47.407Z,1.40
2023-03-24T08:49:15.690Z,3.95
2023-03-24T08:51:44.503Z,1.90
2023-03-24T08:54:19.406Z,1.60
2023-03-24T08:56:47.011Z,1.63
2023-03-24T08:59:21.384Z,1.95
2023-03-24T09:01:49.222Z,3.90
2023-03-24T09:04:23.543Z,1.83
2023-03-24T09:07:11.343Z,1.65
2023-03-24T09:09:47.536Z,1.73
2023-03-24T09:12:21.353Z,2.55
2023-03-24T09:14:51.150Z,1.52
2023-03-24T09:17:25.326Z,1.90
2023-03-24T09:19:53.600Z,2.47
2023-03-24T09:22:28.357Z,2.70
2023-03-24T09:24:56.753Z,2.08
2023-03-24T09:27:32.956Z,2.13
2023-03-24T09:30:08.511Z,1.90
2023-03-24T09:32:44.418Z,2.17
2023-03-24T09:35:12.265Z,1.75
2023-03-24T09:37:47.604Z,1.52
2023-03-24T09:40:35.344Z,1.73
2023-03-24T09:43:11.598Z,2.05
2023-03-24T09:45:57.199Z,2.47
2023-03-24T09:49:14.388Z,2.92
2023-03-24T09:51:45.407Z,1.77
2023-03-24T09:54:36.742Z,1.45
2023-03-24T09:57:06.285Z,1.45
2023-03-24T09:59:48.374Z,2.55
2023-03-24T10:02:21.397Z,2.13
2023-03-24T10:04:57.427Z,1.60
2023-03-24T10:07:50.359Z,1.58
2023-03-24T10:11:01.349Z,1.20
2023-03-24T10:13:50.386Z,1.60
2023-03-24T10:16:59.674Z,1.65
2023-03-24T10:20:27.406Z,1.40
2023-03-24T10:23:19.382Z,1.42
2023-03-24T10:26:01.856Z,1.33
2023-03-24T10:29:20.374Z,1.20
2023-03-24T10:31:52.543Z,1.30
2023-03-24T10:34:28.383Z,1.40
2023-03-24T10:37:05.353Z,1.60
2023-03-24T10:39:44.659Z,0.93
2023-03-24T10:42:22.324Z,1.13
2023-03-24T10:44:58.362Z,1.23
2023-03-24T10:47:32.538Z,1.83
2023-03-24T10:50:15.003Z,1.67
2023-03-24T10:52:57.419Z,1.30
2023-03-24T10:55:39.353Z,1.75
2023-03-24T10:58:27.380Z,1.35
2023-03-24T11:00:59.169Z,1.10
2023-03-24T11:03:42.570Z,1.00
2023-03-24T11:06:25.338Z,2.22
2023-03-24T11:09:36.409Z,1.08
2023-03-24T11:12:05.094Z,2.08
2023-03-24T11:14:42.655Z,0.80
2023-03-24T11:17:24.396Z,1.05
2023-03-24T11:19:54.506Z,0.88
2023-03-24T11:22:29.377Z,1.00
2023-03-24T11:25:04.390Z,3.38
2023-03-24T11:27:38.368Z,0.95
2023-03-24T11:30:07.326Z,0.82
2023-03-24T11:32:42.418Z,1.15
2023-03-24T11:35:32.158Z,1.48
2023-03-24T11:38:15.377Z,1.42
2023-03-24T11:41:03.456Z,1.70
2023-03-24T11:43:38.451Z,0.70
2023-03-24T11:49:31.382Z,0.85
2023-03-24T11:52:06.374Z,1.27
2023-03-24T11:54:38.363Z,2.40
2023-03-24T11:57:18.405Z,1.63
2023-03-24T12:00:08.441Z,0.90
2023-03-24T12:02:47.572Z,0.70
2023-03-24T12:05:28.422Z,0.80
2023-03-24T12:08:14.509Z,1.45
2023-03-24T12:11:11.385Z,0.60
2023-03-24T12:13:49.403Z,1.42
2023-03-24T12:16:28.440Z,1.60
2023-03-24T12:19:18.559Z,0.60
2023-03-24T12:22:20.437Z,0.55
2023-03-24T12:25:04.958Z,0.43
2023-03-24T12:28:03.818Z,0.70
2023-03-24T12:31:03.987Z,0.70
2023-03-24T12:33:59.394Z,0.85
2023-03-24T12:37:07.003Z,0.55
2023-03-24T12:40:11.676Z,0.40
2023-03-24T12:42:53.426Z,1.23
2023-03-24T12:45:47.528Z,0.88
2023-03-24T12:48:40.374Z,0.38
2023-03-24T12:51:33.751Z,0.60
2023-03-24T12:54:41.455Z,2.40
2023-03-24T12:57:21.390Z,0.40
2023-03-24T13:00:05.435Z,0.40
2023-03-24T13:02:48.526Z,0.30
2023-03-24T13:05:22.677Z,0.47
2023-03-24T13:08:09.545Z,0.63
2023-03-24T13:10:54.412Z,0.52
2023-03-24T13:13:42.426Z,0.38
2023-03-24T13:16:26.432Z,0.20
2023-03-24T13:19:05.669Z,0.40
2023-03-24T13:21:35.488Z,0.57
2023-03-24T13:24:15.385Z,0.60
2023-03-24T13:27:27.416Z,0.95
2023-03-24T13:30:29.440Z,2.15
2023-03-24T13:33:02.414Z,1.75
2023-03-24T13:35:57.536Z,0.60
2023-03-24T13:38:42.410Z,0.70
2023-03-24T13:41:25.453Z,1.10
2023-03-24T13:44:00.390Z,1.00
2023-03-24T13:46:35.429Z,0.68
2023-03-24T13:49:14.961Z,1.85
2023-03-24T13:51:48.504Z,0.60
2023-03-24T13:54:34.541Z,1.67
2023-03-24T14:00:23.384Z,0.50
2023-03-24T14:03:02.449Z,0.47
2023-03-24T14:05:40.536Z,0.93
2023-03-24T14:08:28.467Z,0.50
2023-03-24T14:11:03.887Z,0.87
2023-03-24T14:13:52.432Z,10.70
2023-03-24T14:16:51.380Z,1.33
2023-03-24T14:19:36.279Z,3.13
2023-03-24T14:22:18.487Z,1.37
2023-03-24T14:24:56.393Z,1.60
2023-03-24T14:27:54.450Z,3.43
2023-03-24T14:30:43.207Z,2.15
2023-03-24T14:33:33.426Z,1.63
2023-03-24T14:36:12.152Z,2.10
2023-03-24T14:38:49.488Z,1.00
2023-03-24T14:41:28.933Z,2.70
2023-03-24T14:44:05.535Z,1.00
2023-03-24T14:46:41.352Z,0.93
2023-03-24T14:49:33.449Z,0.40
2023-03-24T14:52:25.520Z,1.20
2023-03-24T14:55:04.513Z,1.23
2023-03-24T14:57:45.611Z,0.70
2023-03-24T15:00:26.470Z,0.83
2023-03-24T15:03:26.850Z,0.67
2023-03-24T15:06:10.678Z,0.70
2023-03-24T15:08:45.537Z,1.03
2023-03-24T15:11:25.797Z,2.50
2023-03-24T15:14:02.674Z,0.90
2023-03-24T15:16:33.920Z,0.70
2023-03-24T15:19:10.519Z,1.02
2023-03-24T15:21:56.389Z,1.02
2023-03-24T15:24:41.403Z,2.83
2023-03-24T15:27:23.651Z,0.98
2023-03-24T15:30:07.441Z,1.33
2023-03-24T15:32:41.240Z,5.65
2023-03-24T15:35:25.580Z,1.10
2023-03-24T15:37:59.719Z,3.38
2023-03-24T15:40:38.460Z,1.75
2023-03-24T15:43:16.593Z,1.60
2023-03-24T15:46:11.073Z,1.88
2023-03-24T15:48:40.179Z,0.63
2023-03-24T15:51:19.426Z,1.63
2023-03-24T15:53:56.537Z,1.02
2023-03-24T15:56:39.478Z,2.17
2023-03-24T15:59:09.438Z,3.15
2023-03-24T16:01:45.763Z,1.45
2023-03-24T16:04:27.504Z,0.80
2023-03-24T16:07:04.492Z,2.58
2023-03-24T16:09:45.141Z,1.10
2023-03-24T16:12:27.419Z,1.13
2023-03-24T16:14:55.068Z,4.45
2023-03-24T16:17:29.461Z,2.47
2023-03-24T16:20:05.560Z,1.85
2023-03-24T16:22:40.543Z,1.40
2023-03-24T16:25:15.462Z,2.65
2023-03-24T16:27:44.132Z,1.80
2023-03-24T16:30:52.466Z,2.72
2023-03-24T16:33:27.449Z,3.75
2023-03-24T16:36:01.582Z,1.38
2023-03-24T16:38:35.455Z,1.52
2023-03-24T16:41:10.462Z,1.57
2023-03-24T16:43:44.505Z,1.60
2023-03-24T16:46:27.253Z,1.23
2023-03-24T16:49:02.561Z,1.20
2023-03-24T16:51:36.465Z,2.50
2023-03-24T16:54:11.501Z,1.45
2023-03-24T16:56:46.582Z,2.80
2023-03-24T16:59:15.044Z,1.83
2023-03-24T17:01:53.613Z,1.98
2023-03-24T17:04:24.816Z,2.87
2023-03-24T17:07:00.467Z,2.40
2023-03-24T17:09:35.372Z,1.57
2023-03-24T17:12:11.467Z,3.00
2023-03-24T17:14:39.252Z,4.03
2023-03-24T17:17:20.775Z,3.27
2023-03-24T17:19:55.507Z,1.93
2023-03-24T17:22:25.515Z,2.23
2023-03-24T17:25:04.531Z,2.37
2023-03-24T17:27:32.337Z,2.53
2023-03-24T17:30:06.529Z,2.97
2023-03-24T17:32:41.431Z,2.20
2023-03-24T17:35:19.584Z,4.10
2023-03-24T17:37:48.207Z,2.43
2023-03-24T17:40:24.544Z,3.00
2023-03-24T17:42:58.445Z,2.97
2023-03-24T17:45:28.387Z,2.73
2023-03-24T17:47:56.361Z,3.00
2023-03-24T17:50:32.507Z,3.93
2023-03-24T17:53:02.053Z,1.73
2023-03-24T17:55:36.534Z,4.67
2023-03-24T17:58:10.517Z,3.60
2023-03-24T18:00:44.577Z,2.33
2023-03-24T18:03:13.214Z,3.60
2023-03-24T18:05:47.501Z,3.37
2023-03-24T18:08:28.576Z,3.20
2023-03-24T18:11:16.584Z,2.60
2023-03-24T18:13:44.854Z,3.00
2023-03-24T18:16:21.872Z,5.03
2023-03-24T18:18:58.627Z,3.80
2023-03-24T18:21:35.585Z,3.13
2023-03-24T18:24:11.542Z,1.87
2023-03-24T18:26:45.555Z,2.00
2023-03-24T18:29:14.701Z,3.73
2023-03-24T18:31:48.746Z,3.97
2023-03-24T18:34:18.501Z,2.50
2023-03-24T18:36:52.906Z,3.07
2023-03-24T18:39:29.630Z,4.53
2023-03-24T18:41:57.722Z,5.57
2023-03-24T18:44:31.731Z,4.50
2023-03-24T18:47:06.676Z,4.93
2023-03-24T18:49:34.580Z,5.23
2023-03-24T18:52:11.630Z,4.20
2023-03-24T18:54:39.534Z,4.93
2023-03-24T18:57:13.714Z,3.20
2023-03-24T18:59:48.812Z,5.07
2023-03-24T19:02:22.696Z,4.27
2023-03-24T19:04:50.347Z,3.63
2023-03-24T19:07:30.648Z,10.03
2023-03-24T19:10:05.459Z,8.07
2023-03-24T19:12:39.694Z,4.23
2023-03-24T19:15:17.205Z,5.63
2023-03-24T19:17:51.740Z,7.50
2023-03-24T19:20:25.680Z,3.53
2023-03-24T19:23:01.696Z,4.87
2023-03-24T19:25:30.603Z,5.93
2023-03-24T19:28:05.677Z,6.23
2023-03-24T19:30:42.027Z,6.20
2023-03-24T19:33:18.652Z,3.77
2023-03-24T19:35:52.777Z,6.03
2023-03-24T19:38:30.653Z,4.27
2023-03-24T19:41:04.680Z,5.50
2023-03-24T19:43:39.712Z,4.30
2023-03-24T19:46:07.590Z,4.63
2023-03-24T19:48:35.864Z,5.83
2023-03-24T19:51:10.677Z,6.17
2023-03-24T19:53:40.152Z,6.67
2023-03-24T19:56:14.679Z,9.33
2023-03-24T19:58:42.123Z,6.20
2023-03-24T20:01:16.650Z,7.13
2023-03-24T20:03:52.815Z,5.20
2023-03-24T20:06:21.689Z,6.27
2023-03-24T20:09:02.644Z,5.93
2023-03-24T20:11:30.164Z,6.10
2023-03-24T20:14:04.718Z,3.70
2023-03-24T20:16:38.717Z,6.07
2023-03-24T20:19:16.814Z,3.97
2023-03-24T20:21:50.678Z,8.00
2023-03-24T20:24:18.289Z,4.37
2023-03-24T20:26:52.659Z,7.67
2023-03-24T20:29:22.373Z,6.83
2023-03-24T20:31:56.776Z,4.50
2023-03-24T20:34:24.947Z,9.83
2023-03-24T20:37:01.205Z,6.00
2023-03-24T20:39:35.861Z,5.23
2023-03-24T20:42:03.506Z,4.60
2023-03-24T20:44:37.692Z,3.80
2023-03-24T20:47:06.247Z,4.73
2023-03-24T20:49:41.649Z,2.57
2023-03-24T20:52:09.259Z,4.37
2023-03-24T20:54:43.773Z,3.53
2023-03-24T20:57:12.405Z,6.83
2023-03-24T20:59:52.258Z,3.97
2023-03-24T21:02:26.743Z,4.30
2023-03-24T21:05:00.694Z,5.40
2023-03-24T21:07:28.190Z,5.17
2023-03-24T21:10:12.072Z,6.47
2023-03-24T21:12:53.997Z,6.17
2023-03-24T21:15:33.939Z,4.97
2023-03-24T21:18:07.915Z,6.47
2023-03-24T21:20:35.548Z,4.57
2023-03-24T21:23:10.940Z,3.57
2023-03-24T21:25:38.759Z,4.23
2023-03-24T21:28:12.943Z,2.60
2023-03-24T21:30:46.982Z,7.10
2023-03-24T21:33:24.278Z,5.47
2023-03-24T21:36:03.683Z,4.33
2023-03-24T21:38:39.217Z,6.23
2023-03-24T21:41:07.829Z,7.63
2023-03-24T21:43:44.420Z,5.30
2023-03-24T21:46:27.861Z,4.93
2023-03-24T21:49:05.444Z,5.97
2023-03-24T21:51:40.502Z,6.30
2023-03-24T21:54:16.335Z,4.40
2023-03-24T21:56:44.978Z,3.37
2023-03-24T21:59:19.420Z,4.93
2023-03-24T22:01:54.419Z,4.30
2023-03-24T22:04:28.406Z,4.93
2023-03-24T22:07:03.400Z,3.83
2023-03-24T22:09:37.365Z,4.57
2023-03-24T22:12:11.624Z,4.23
2023-03-24T22:14:45.338Z,4.20
2023-03-24T22:17:12.860Z,5.70
2023-03-24T22:19:47.358Z,3.57
2023-03-24T22:22:14.928Z,8.33
2023-03-24T22:24:49.406Z,5.40
2023-03-24T22:27:24.357Z,2.43
2023-03-24T22:29:58.363Z,4.87
2023-03-24T22:32:32.439Z,8.20
2023-03-24T22:35:08.378Z,3.37
2023-03-24T22:37:36.370Z,4.60
2023-03-24T22:40:15.891Z,1.97
2023-03-24T22:43:09.395Z,1.20
2023-03-24T22:45:36.989Z,2.53
2023-03-24T22:48:13.417Z,3.27
2023-03-24T22:50:42.405Z,1.57
2023-03-24T22:53:16.377Z,2.97
2023-03-24T22:55:45.562Z,1.50
2023-03-24T22:58:14.425Z,2.30
2023-03-24T23:00:49.412Z,1.83
2023-03-24T23:03:18.374Z,3.17
2023-03-24T23:05:53.477Z,2.90
2023-03-24T23:08:27.440Z,2.87
2023-03-24T23:11:09.401Z,7.13
2023-03-24T23:13:39.060Z,2.60
2023-03-24T23:16:17.432Z,1.07
2023-03-24T23:18:52.372Z,1.07
2023-03-24T23:21:19.926Z,4.47
2023-03-24T23:23:55.403Z,0.60
2023-03-24T23:26:25.171Z,3.37
2023-03-24T23:29:00.391Z,1.73
2023-03-24T23:31:29.749Z,1.13
2023-03-24T23:34:07.898Z,4.40
2023-03-24T23:36:42.405Z,8.37
2023-03-24T23:39:09.889Z,0.90
2023-03-24T23:41:44.408Z,1.47
2023-03-24T23:44:11.896Z,2.10
2023-03-24T23:46:46.434Z,1.13
2023-03-24T23:49:14.488Z,2.03
2023-03-24T23:51:48.498Z,4.23
2023-03-24T23:54:16.486Z,6.47
2023-03-24T23:56:53.452Z,2.17
2023-03-24T23:59:27.367Z,2.50
